Plentywood (PWD)
Plentywood, MT
Field Elevation: 2251
Lat: 48°47.32N  Long: 104°31.39W
CTAF/Unicom Freq: 122.8000
   
     For Weather-by-Phone, call 406-765-2149
Weather Advisories
2018-04-23   18:46 Z
Altimeter 30.32" Hg
Wind 340° @ 12 KT
Gusts 16 KT
Visibility 10 SM
Temperature 8° C (46° F)
Dewpoint 1° C (34° F)
Relative Humidity 59%
Density Altitude --
Condensation Altitude 5,900 feet
Wind Chill: 5° C (41° F)
Wind and Runways
Indicated Runway = 30
Headwind = 9 kt
Crosswind = 8 kt
History
 
 
 
More Info
NOAA Forecast
 
Airport IQ 5010
(S59) Libby
(6S5) Ravalli County
 
about DigiWx
 
FAA Disclaimer: The data displayed is for advisory purposes only and is not to be used for flight planning or operations. For official data, please call 406-765-2149 to hear the current automated AWOS voice message.
  METAR PWD 231846Z AUTO 34012G16KT VIS 10 SM 08/01 A3032